createdAt,value
2022-07-31T00:00:13.075Z,0.00
2022-07-31T00:01:13.322Z,0.00
2022-07-31T00:02:13.685Z,0.00
2022-07-31T00:03:13.717Z,0.00
2022-07-31T00:04:13.321Z,0.00
2022-07-31T00:05:13.338Z,0.00
2022-07-31T00:06:13.416Z,0.00
2022-07-31T00:07:13.693Z,0.00
2022-07-31T00:08:13.637Z,0.00
2022-07-31T00:09:48.902Z,0.00
2022-07-31T00:10:13.457Z,0.00
2022-07-31T00:11:13.722Z,0.00
2022-07-31T00:12:14.043Z,0.00
2022-07-31T00:13:14.174Z,0.00
2022-07-31T00:14:13.443Z,0.00
2022-07-31T00:15:13.401Z,0.00
2022-07-31T00:16:13.831Z,0.00
2022-07-31T00:17:13.734Z,0.00
2022-07-31T00:18:13.729Z,0.00
2022-07-31T00:19:13.742Z,0.00
2022-07-31T00:20:13.698Z,0.00
2022-07-31T00:21:13.971Z,0.00
2022-07-31T00:22:13.355Z,0.00
2022-07-31T00:23:13.372Z,0.00
2022-07-31T00:24:13.110Z,0.00
2022-07-31T00:25:14.790Z,0.00
2022-07-31T00:26:13.736Z,0.00
2022-07-31T00:27:13.706Z,0.00
2022-07-31T00:28:15.080Z,0.00
2022-07-31T00:29:16.129Z,0.00
2022-07-31T00:30:13.461Z,0.00
2022-07-31T00:31:13.561Z,0.00
2022-07-31T00:32:13.827Z,0.00
2022-07-31T00:33:13.785Z,0.00
2022-07-31T00:34:14.261Z,0.00
2022-07-31T00:35:14.682Z,0.00
2022-07-31T00:36:15.480Z,0.00
2022-07-31T00:37:13.610Z,0.00
2022-07-31T00:38:26.554Z,0.00
2022-07-31T00:39:13.652Z,0.00
2022-07-31T00:40:14.576Z,0.00
2022-07-31T00:41:14.060Z,0.00
2022-07-31T00:42:13.388Z,0.00
2022-07-31T00:43:13.747Z,0.00
2022-07-31T00:44:15.156Z,0.00
2022-07-31T00:45:13.461Z,0.00
2022-07-31T00:46:14.412Z,0.00
2022-07-31T00:47:13.736Z,0.00
2022-07-31T00:48:13.350Z,0.00
2022-07-31T00:49:13.707Z,0.00
2022-07-31T00:50:13.850Z,0.00
2022-07-31T00:51:14.185Z,0.00
2022-07-31T00:52:13.478Z,0.00
2022-07-31T00:53:13.573Z,0.00
2022-07-31T00:54:22.279Z,0.00
2022-07-31T00:55:13.394Z,0.00
2022-07-31T00:56:13.344Z,0.00
2022-07-31T00:57:13.253Z,0.00
2022-07-31T00:58:14.760Z,0.00
2022-07-31T00:59:13.669Z,0.00
2022-07-31T01:00:13.720Z,0.00
2022-07-31T01:01:13.764Z,0.00
2022-07-31T01:02:13.851Z,0.00
2022-07-31T01:03:13.995Z,0.00
2022-07-31T01:04:15.503Z,0.00
2022-07-31T01:05:15.066Z,0.00
2022-07-31T01:06:12.939Z,0.00
2022-07-31T01:07:13.527Z,0.00
2022-07-31T01:08:13.636Z,0.00
2022-07-31T01:09:13.511Z,0.00
2022-07-31T01:10:13.717Z,0.00
2022-07-31T01:11:13.996Z,0.00
2022-07-31T01:12:12.878Z,0.00
2022-07-31T01:13:14.900Z,0.00
2022-07-31T01:14:12.819Z,0.00
2022-07-31T01:15:15.185Z,0.00
2022-07-31T01:16:13.552Z,0.00
2022-07-31T01:17:14.153Z,0.00
2022-07-31T01:18:13.197Z,0.00
2022-07-31T01:19:13.963Z,0.00
2022-07-31T01:20:12.891Z,0.00
2022-07-31T01:21:12.902Z,0.00
2022-07-31T01:22:33.986Z,0.00
2022-07-31T01:23:15.210Z,0.00
2022-07-31T01:24:13.330Z,0.00
2022-07-31T01:25:13.257Z,0.00
2022-07-31T01:26:13.415Z,0.00
2022-07-31T01:27:13.335Z,0.00
2022-07-31T01:28:14.591Z,0.00
2022-07-31T01:29:13.938Z,0.00
2022-07-31T01:30:12.924Z,0.00
2022-07-31T01:31:26.135Z,0.00
2022-07-31T01:32:13.247Z,0.00
2022-07-31T01:33:13.048Z,0.00
2022-07-31T01:34:13.222Z,0.00
2022-07-31T01:35:13.210Z,0.00
2022-07-31T01:36:13.159Z,0.00
2022-07-31T01:37:13.234Z,0.00
2022-07-31T01:38:13.495Z,0.00
2022-07-31T01:39:13.363Z,0.00
2022-07-31T01:40:13.327Z,0.00
2022-07-31T01:41:13.268Z,0.00
2022-07-31T01:42:13.362Z,0.00
2022-07-31T01:43:13.473Z,0.00
2022-07-31T01:44:13.717Z,0.00
2022-07-31T01:45:13.534Z,0.00
2022-07-31T01:46:13.437Z,0.00
2022-07-31T01:47:13.549Z,0.00
2022-07-31T01:48:13.836Z,0.00
2022-07-31T01:49:14.372Z,0.00
2022-07-31T01:50:41.788Z,0.00
2022-07-31T01:51:13.345Z,0.00
2022-07-31T01:52:13.739Z,0.00
2022-07-31T01:53:13.587Z,0.00
2022-07-31T01:54:13.924Z,0.00
2022-07-31T01:55:13.067Z,0.00
2022-07-31T01:56:13.199Z,0.00
2022-07-31T01:57:13.177Z,0.00
2022-07-31T01:58:13.464Z,0.00
2022-07-31T01:59:20.654Z,0.00
2022-07-31T02:00:33.850Z,0.00
2022-07-31T02:01:13.696Z,0.00
2022-07-31T02:02:13.927Z,0.00
2022-07-31T02:03:12.991Z,0.00
2022-07-31T02:04:13.528Z,0.00
2022-07-31T02:05:13.236Z,0.00
2022-07-31T02:06:13.209Z,0.00
2022-07-31T02:07:15.397Z,0.00
2022-07-31T02:08:13.819Z,0.00
2022-07-31T02:09:14.281Z,0.00
2022-07-31T02:10:13.572Z,0.00
2022-07-31T02:11:14.002Z,0.00
2022-07-31T02:12:13.217Z,0.00
2022-07-31T02:13:13.766Z,0.00
2022-07-31T02:14:13.829Z,0.00
2022-07-31T02:15:13.721Z,0.00
2022-07-31T02:16:13.840Z,0.00
2022-07-31T02:17:14.053Z,0.00
2022-07-31T02:18:13.829Z,0.00
2022-07-31T02:19:13.974Z,0.00
2022-07-31T02:20:13.387Z,0.00
2022-07-31T02:21:13.477Z,0.00
2022-07-31T02:22:13.830Z,0.00
2022-07-31T02:23:13.889Z,0.00
2022-07-31T02:24:13.025Z,0.00
2022-07-31T02:25:15.095Z,0.00
2022-07-31T02:26:14.937Z,0.00
2022-07-31T02:27:54.126Z,0.00
2022-07-31T02:28:13.644Z,0.00
2022-07-31T02:29:20.031Z,0.00
2022-07-31T02:30:13.426Z,0.00
2022-07-31T02:31:13.947Z,0.00
2022-07-31T02:32:13.445Z,0.00
2022-07-31T02:33:13.678Z,0.00
2022-07-31T02:34:14.216Z,0.00
2022-07-31T02:35:13.102Z,0.00
2022-07-31T02:36:12.984Z,0.00
2022-07-31T02:37:12.804Z,0.00
2022-07-31T02:38:22.371Z,0.00
2022-07-31T02:39:13.194Z,0.00
2022-07-31T02:40:13.167Z,0.00
2022-07-31T02:41:13.588Z,0.00
2022-07-31T02:42:13.619Z,0.00
2022-07-31T02:43:13.829Z,0.00
2022-07-31T02:44:13.708Z,0.00
2022-07-31T02:45:13.589Z,0.00
2022-07-31T02:46:14.153Z,0.00
2022-07-31T02:47:13.179Z,0.00
2022-07-31T02:48:13.233Z,0.00
2022-07-31T02:49:13.217Z,0.00
2022-07-31T02:50:13.393Z,0.00
2022-07-31T02:51:13.591Z,0.00
2022-07-31T02:52:13.746Z,0.00
2022-07-31T02:53:13.717Z,0.00
2022-07-31T02:54:13.660Z,0.00
2022-07-31T02:55:13.720Z,0.00
2022-07-31T02:56:12.875Z,0.00
2022-07-31T02:57:13.985Z,0.00
2022-07-31T02:58:13.405Z,0.00
2022-07-31T02:59:13.752Z,0.00
2022-07-31T03:00:13.998Z,0.00
2022-07-31T03:01:13.122Z,0.00
2022-07-31T03:02:13.177Z,0.00
2022-07-31T03:03:13.121Z,0.00
2022-07-31T03:04:12.998Z,0.00
2022-07-31T03:05:12.955Z,0.00
2022-07-31T03:06:12.848Z,0.00
2022-07-31T03:07:14.078Z,0.00
2022-07-31T03:08:13.138Z,0.77
2022-07-31T03:09:13.057Z,0.77
2022-07-31T03:10:13.327Z,0.77
2022-07-31T03:11:13.318Z,0.77
2022-07-31T03:12:13.289Z,0.77
2022-07-31T03:13:13.136Z,1.53
2022-07-31T03:14:13.075Z,1.53
2022-07-31T03:15:13.209Z,1.53
2022-07-31T03:16:13.462Z,2.29
2022-07-31T03:17:14.039Z,2.29
2022-07-31T03:18:13.133Z,3.06
2022-07-31T03:19:13.180Z,3.06
2022-07-31T03:20:14.881Z,3.82
2022-07-31T03:21:13.841Z,4.59
2022-07-31T03:22:15.424Z,5.35
2022-07-31T03:23:13.678Z,6.12
2022-07-31T03:24:13.650Z,7.65
2022-07-31T03:25:20.101Z,9.18
2022-07-31T03:26:13.286Z,10.71
2022-07-31T03:27:13.145Z,12.24
2022-07-31T03:28:13.170Z,13.77
2022-07-31T03:29:42.376Z,16.83
2022-07-31T03:30:13.542Z,19.89
2022-07-31T03:31:13.634Z,22.95
2022-07-31T03:32:13.931Z,24.48
2022-07-31T03:33:13.127Z,30.60
2022-07-31T03:34:13.423Z,33.66
2022-07-31T03:35:13.464Z,36.72
2022-07-31T03:36:13.689Z,42.84
2022-07-31T03:37:13.931Z,48.96
2022-07-31T03:38:40.902Z,55.08
2022-07-31T03:39:13.782Z,55.08
2022-07-31T03:40:13.884Z,67.32
2022-07-31T03:41:14.312Z,73.44
2022-07-31T03:42:18.991Z,79.56
2022-07-31T03:43:13.274Z,85.68
2022-07-31T03:44:13.297Z,97.92
2022-07-31T03:45:13.288Z,110.16
2022-07-31T03:46:13.444Z,110.16
2022-07-31T03:47:13.340Z,134.64
2022-07-31T03:48:13.484Z,146.88
2022-07-31T03:49:13.966Z,159.12
2022-07-31T03:50:12.984Z,183.60
2022-07-31T03:51:13.002Z,195.84
2022-07-31T03:52:13.070Z,220.32
2022-07-31T03:53:13.190Z,220.32
2022-07-31T03:54:13.258Z,244.80
2022-07-31T03:55:13.548Z,269.28
2022-07-31T03:56:13.549Z,269.28
2022-07-31T03:57:13.741Z,293.76
2022-07-31T03:58:13.360Z,318.24
2022-07-31T03:59:13.341Z,342.72
2022-07-31T04:00:16.522Z,367.20
2022-07-31T04:01:13.493Z,391.68
2022-07-31T04:02:17.242Z,391.68
2022-07-31T04:03:13.089Z,440.64
2022-07-31T04:04:13.000Z,489.60
2022-07-31T04:05:12.930Z,538.56
2022-07-31T04:06:12.882Z,587.52
2022-07-31T04:07:13.904Z,636.48
2022-07-31T04:08:12.795Z,685.44
2022-07-31T04:09:18.810Z,734.40
2022-07-31T04:10:12.980Z,783.36
2022-07-31T04:11:12.992Z,783.36
2022-07-31T04:12:13.047Z,881.28
2022-07-31T04:13:12.914Z,881.28
2022-07-31T04:14:12.750Z,979.20
2022-07-31T04:15:13.978Z,979.20
2022-07-31T04:16:12.968Z,1175.04
2022-07-31T04:17:12.834Z,1272.96
2022-07-31T04:18:13.682Z,1370.88
2022-07-31T04:19:13.905Z,1370.88
2022-07-31T04:20:12.860Z,1468.80
2022-07-31T04:21:13.988Z,1566.72
2022-07-31T04:22:13.956Z,1566.72
2022-07-31T04:23:12.964Z,1762.56
2022-07-31T04:24:13.924Z,1762.56
2022-07-31T04:25:13.096Z,1762.56
2022-07-31T04:26:20.105Z,1762.56
2022-07-31T04:27:13.458Z,1762.56
2022-07-31T04:28:13.481Z,1958.40
2022-07-31T04:29:13.476Z,1958.40
2022-07-31T04:30:13.335Z,2154.24
2022-07-31T04:31:13.342Z,2154.24
2022-07-31T04:32:13.341Z,2350.08
2022-07-31T04:33:13.638Z,2154.24
2022-07-31T04:34:13.969Z,2154.24
2022-07-31T04:35:12.974Z,2154.24
2022-07-31T04:36:29.058Z,2154.24
2022-07-31T04:37:13.684Z,2154.24
2022-07-31T04:38:14.186Z,2154.24
2022-07-31T04:39:13.454Z,2350.08
2022-07-31T04:40:13.357Z,2350.08
2022-07-31T04:41:13.637Z,2350.08
2022-07-31T04:42:13.675Z,2545.92
2022-07-31T04:43:13.587Z,2545.92
2022-07-31T04:44:13.611Z,2545.92
2022-07-31T04:45:13.871Z,2545.92
2022-07-31T04:46:17.140Z,2545.92
2022-07-31T04:47:13.954Z,2545.92
2022-07-31T04:48:12.998Z,2350.08
2022-07-31T04:49:13.037Z,2350.08
2022-07-31T04:50:13.258Z,2154.24
2022-07-31T04:51:14.974Z,2154.24
2022-07-31T04:52:13.020Z,1958.40
2022-07-31T04:53:12.868Z,1958.40
2022-07-31T04:54:13.780Z,1958.40
2022-07-31T04:55:13.698Z,1958.40
2022-07-31T04:56:13.607Z,1958.40
2022-07-31T04:57:18.538Z,1958.40
2022-07-31T04:58:13.754Z,1958.40
2022-07-31T04:59:13.697Z,1958.40
2022-07-31T05:00:13.773Z,1958.40
2022-07-31T05:01:13.764Z,1958.40
2022-07-31T05:02:13.812Z,1958.40
2022-07-31T05:03:13.795Z,2154.24
2022-07-31T05:04:14.604Z,2154.24
2022-07-31T05:05:18.837Z,2154.24
2022-07-31T05:06:14.011Z,2350.08
2022-07-31T05:07:12.907Z,2350.08
2022-07-31T05:08:16.326Z,2350.08
2022-07-31T05:09:18.356Z,2545.92
2022-07-31T05:10:13.004Z,2741.76
2022-07-31T05:11:18.170Z,2545.92
2022-07-31T05:12:13.999Z,2741.76
2022-07-31T05:13:12.911Z,2741.76
2022-07-31T05:14:14.983Z,2741.76
2022-07-31T05:15:13.315Z,2741.76
2022-07-31T05:16:13.188Z,2545.92
2022-07-31T05:17:13.687Z,2545.92
2022-07-31T05:18:13.671Z,2545.92
2022-07-31T05:19:15.005Z,2545.92
2022-07-31T05:20:13.834Z,2937.60
2022-07-31T05:21:14.564Z,3133.44
2022-07-31T05:22:13.536Z,3525.12
2022-07-31T05:23:13.988Z,3525.12
2022-07-31T05:24:12.853Z,3525.12
2022-07-31T05:25:13.849Z,3916.80
2022-07-31T05:26:13.796Z,3916.80
2022-07-31T05:27:14.119Z,3525.12
2022-07-31T05:28:13.529Z,3916.80
2022-07-31T05:29:18.986Z,3916.80
2022-07-31T05:30:12.940Z,3916.80
2022-07-31T05:31:13.962Z,3916.80
2022-07-31T05:32:14.641Z,4308.48
2022-07-31T05:33:13.945Z,3916.80
2022-07-31T05:34:18.741Z,3916.80
2022-07-31T05:35:14.039Z,3525.12
2022-07-31T05:36:23.385Z,3525.12
2022-07-31T05:37:13.644Z,3525.12
2022-07-31T05:38:13.706Z,3525.12
2022-07-31T05:39:19.155Z,3525.12
2022-07-31T05:40:18.610Z,3525.12
2022-07-31T05:41:18.581Z,3525.12
2022-07-31T05:42:12.830Z,3916.80
2022-07-31T05:43:13.844Z,3916.80
2022-07-31T05:44:15.347Z,3916.80
2022-07-31T05:45:13.604Z,3916.80
2022-07-31T05:46:14.175Z,3525.12
2022-07-31T05:47:13.174Z,3525.12
2022-07-31T05:48:13.684Z,3525.12
2022-07-31T05:49:13.742Z,3525.12
2022-07-31T05:50:14.061Z,3525.12
2022-07-31T05:51:24.138Z,3525.12
2022-07-31T05:52:13.192Z,3916.80
2022-07-31T05:53:24.059Z,4308.48
2022-07-31T05:54:14.224Z,4700.16
2022-07-31T05:55:18.294Z,5483.52
2022-07-31T05:56:13.248Z,5875.20
2022-07-31T05:57:13.156Z,6266.88
2022-07-31T05:58:16.591Z,6266.88
2022-07-31T05:59:14.062Z,7050.24
2022-07-31T06:00:13.041Z,7050.24
2022-07-31T06:01:15.314Z,7050.24
2022-07-31T06:02:20.225Z,7833.60
2022-07-31T06:03:13.374Z,7833.60
2022-07-31T06:04:13.787Z,7833.60
2022-07-31T06:05:14.084Z,7833.60
2022-07-31T06:06:13.311Z,7833.60
2022-07-31T06:07:23.526Z,7050.24
2022-07-31T06:08:18.808Z,7050.24
2022-07-31T06:09:13.740Z,7050.24
2022-07-31T06:10:15.307Z,7050.24
2022-07-31T06:11:14.392Z,7050.24
2022-07-31T06:12:14.320Z,7050.24
2022-07-31T06:13:14.679Z,7050.24
2022-07-31T06:14:14.716Z,7833.60
2022-07-31T06:15:14.244Z,7833.60
2022-07-31T06:16:13.436Z,7833.60
2022-07-31T06:17:15.485Z,8616.96
2022-07-31T06:18:13.427Z,8616.96
2022-07-31T06:19:18.839Z,8616.96
2022-07-31T06:20:14.294Z,8616.96
2022-07-31T06:22:13.420Z,9400.32
2022-07-31T06:23:22.924Z,10183.68
2022-07-31T06:24:13.855Z,10183.68
2022-07-31T06:25:14.922Z,10967.04
2022-07-31T06:26:13.155Z,10967.04
2022-07-31T06:27:25.321Z,11750.40
2022-07-31T06:28:14.896Z,11750.40
2022-07-31T06:29:13.430Z,12533.76
2022-07-31T06:30:13.440Z,14100.48
2022-07-31T06:31:13.678Z,14100.48
2022-07-31T06:32:14.167Z,14100.48
2022-07-31T06:33:24.885Z,12533.76
2022-07-31T06:34:15.165Z,10967.04
2022-07-31T06:35:13.249Z,10183.68
2022-07-31T06:36:14.265Z,9400.32
2022-07-31T06:37:15.173Z,8616.96
2022-07-31T06:38:13.261Z,9400.32
2022-07-31T06:39:14.564Z,9400.32
2022-07-31T06:40:13.508Z,9400.32
2022-07-31T06:41:13.421Z,9400.32
2022-07-31T06:42:13.461Z,9400.32
2022-07-31T06:43:13.862Z,9400.32
2022-07-31T06:44:13.795Z,9400.32
2022-07-31T06:45:25.085Z,10183.68
2022-07-31T06:46:13.960Z,10183.68
2022-07-31T06:47:18.111Z,10967.04
2022-07-31T06:48:14.538Z,10967.04
2022-07-31T06:49:20.072Z,10967.04
2022-07-31T06:50:13.049Z,11750.40
2022-07-31T06:51:30.765Z,12533.76
2022-07-31T06:52:19.841Z,12533.76
2022-07-31T06:53:14.320Z,12533.76
2022-07-31T06:54:13.698Z,12533.76
2022-07-31T06:55:13.786Z,14100.48
2022-07-31T06:56:14.383Z,14100.48
2022-07-31T06:57:24.553Z,14100.48
2022-07-31T06:58:14.200Z,14100.48
2022-07-31T06:59:13.265Z,14100.48
2022-07-31T07:00:19.579Z,14100.48
2022-07-31T07:01:14.537Z,14100.48
2022-07-31T07:02:13.549Z,14100.48
2022-07-31T07:03:13.485Z,12533.76
2022-07-31T07:04:13.605Z,12533.76
2022-07-31T07:05:14.615Z,12533.76
2022-07-31T07:06:13.644Z,12533.76
2022-07-31T07:07:19.034Z,11750.40
2022-07-31T07:08:13.107Z,11750.40
2022-07-31T07:09:13.244Z,10967.04
2022-07-31T07:10:13.138Z,10183.68
2022-07-31T07:11:13.393Z,10183.68
2022-07-31T07:12:16.683Z,10183.68
2022-07-31T07:13:18.011Z,9400.32
2022-07-31T07:14:13.216Z,9400.32
2022-07-31T07:15:13.035Z,9400.32
2022-07-31T07:16:12.938Z,10183.68
2022-07-31T07:17:14.223Z,10183.68
2022-07-31T07:18:13.249Z,10967.04
2022-07-31T07:19:16.015Z,11750.40
2022-07-31T07:20:12.960Z,11750.40
2022-07-31T07:21:12.969Z,12533.76
2022-07-31T07:22:12.950Z,12533.76
2022-07-31T07:23:14.212Z,12533.76
2022-07-31T07:24:13.407Z,14100.48
2022-07-31T07:25:13.551Z,14100.48
2022-07-31T07:26:14.015Z,14100.48
2022-07-31T07:27:13.129Z,15667.20
2022-07-31T07:28:29.224Z,14100.48
2022-07-31T07:29:13.288Z,15667.20
2022-07-31T07:30:13.373Z,14100.48
2022-07-31T07:31:13.463Z,15667.20
2022-07-31T07:32:13.589Z,15667.20
2022-07-31T07:33:15.295Z,14100.48
2022-07-31T07:34:12.970Z,14100.48
2022-07-31T07:35:14.102Z,14100.48
2022-07-31T07:36:23.208Z,12533.76
2022-07-31T07:37:13.464Z,12533.76
2022-07-31T07:38:13.714Z,12533.76
2022-07-31T07:39:15.277Z,12533.76
2022-07-31T07:40:13.210Z,12533.76
2022-07-31T07:41:13.620Z,12533.76
2022-07-31T07:42:13.944Z,14100.48
2022-07-31T07:43:12.953Z,14100.48
2022-07-31T07:44:13.028Z,14100.48
2022-07-31T07:45:13.993Z,15667.20
2022-07-31T07:46:13.060Z,17233.92
2022-07-31T07:47:13.252Z,15667.20
2022-07-31T07:48:13.204Z,18800.64
2022-07-31T07:49:15.176Z,17233.92
2022-07-31T07:50:13.183Z,17233.92
2022-07-31T07:51:13.071Z,17233.92
2022-07-31T07:52:13.658Z,18800.64
2022-07-31T07:53:13.888Z,17233.92
2022-07-31T07:54:18.848Z,18800.64
2022-07-31T07:55:13.775Z,18800.64
2022-07-31T07:56:14.189Z,18800.64
2022-07-31T07:57:13.122Z,18800.64
2022-07-31T07:58:13.160Z,17233.92
2022-07-31T07:59:15.003Z,18800.64
2022-07-31T08:00:13.426Z,18800.64
2022-07-31T08:01:13.894Z,18800.64
2022-07-31T08:02:13.383Z,18800.64
2022-07-31T08:03:49.920Z,18800.64
2022-07-31T08:04:18.570Z,18800.64
2022-07-31T08:05:18.513Z,18800.64
2022-07-31T08:06:17.041Z,18800.64
2022-07-31T08:07:13.446Z,18800.64
2022-07-31T08:08:19.072Z,18800.64
2022-07-31T08:09:13.418Z,18800.64
2022-07-31T08:10:13.862Z,18800.64
2022-07-31T08:11:16.914Z,18800.64
2022-07-31T08:12:14.710Z,17233.92
2022-07-31T08:13:14.319Z,17233.92
2022-07-31T08:14:15.198Z,17233.92
2022-07-31T08:15:13.441Z,17233.92
2022-07-31T08:16:18.552Z,17233.92
2022-07-31T08:17:15.074Z,18800.64
2022-07-31T08:18:13.351Z,20367.36
2022-07-31T08:19:14.382Z,20367.36
2022-07-31T08:20:14.333Z,21934.08
2022-07-31T08:21:14.930Z,21934.08
2022-07-31T08:22:13.140Z,23500.80
2022-07-31T08:23:13.135Z,21934.08
2022-07-31T08:24:13.488Z,21934.08
2022-07-31T08:25:14.473Z,23500.80
2022-07-31T08:26:14.459Z,21934.08
2022-07-31T08:27:13.474Z,20367.36
2022-07-31T08:28:14.032Z,20367.36
2022-07-31T08:29:13.847Z,18800.64
2022-07-31T08:30:13.431Z,18800.64
2022-07-31T08:31:13.584Z,20367.36
2022-07-31T08:32:13.931Z,20367.36
2022-07-31T08:33:13.064Z,20367.36
2022-07-31T08:34:13.005Z,20367.36
2022-07-31T08:35:14.249Z,18800.64
2022-07-31T08:36:13.306Z,18800.64
2022-07-31T08:37:51.184Z,17233.92
2022-07-31T08:38:14.428Z,18800.64
2022-07-31T08:39:21.264Z,18800.64
2022-07-31T08:40:13.518Z,18800.64
2022-07-31T08:41:13.907Z,18800.64
2022-07-31T08:42:13.250Z,20367.36
2022-07-31T08:44:00.195Z,20367.36
2022-07-31T08:44:13.985Z,20367.36
2022-07-31T08:45:13.361Z,20367.36
2022-07-31T08:46:14.994Z,17233.92
2022-07-31T08:47:13.423Z,17233.92
2022-07-31T08:48:13.883Z,17233.92
2022-07-31T08:49:13.145Z,15667.20
2022-07-31T08:50:16.229Z,14100.48
2022-07-31T08:51:15.131Z,12533.76
2022-07-31T08:52:16.183Z,12533.76
2022-07-31T08:53:13.612Z,11750.40
2022-07-31T08:54:13.515Z,12533.76
2022-07-31T08:55:24.660Z,12533.76
2022-07-31T08:56:14.306Z,12533.76
2022-07-31T08:57:13.429Z,12533.76
2022-07-31T08:58:13.270Z,14100.48
2022-07-31T08:59:13.188Z,14100.48
2022-07-31T09:00:13.410Z,14100.48
2022-07-31T09:01:13.667Z,14100.48
2022-07-31T09:02:13.731Z,14100.48
2022-07-31T09:03:19.293Z,14100.48
2022-07-31T09:04:13.559Z,14100.48
2022-07-31T09:05:14.560Z,14100.48
2022-07-31T09:06:13.490Z,14100.48
2022-07-31T09:07:13.834Z,14100.48
2022-07-31T09:08:15.104Z,14100.48
2022-07-31T09:09:18.265Z,14100.48
2022-07-31T09:10:13.237Z,14100.48
2022-07-31T09:11:13.767Z,14100.48
2022-07-31T09:12:13.684Z,15667.20
2022-07-31T09:13:13.634Z,15667.20
2022-07-31T09:14:13.635Z,15667.20
2022-07-31T09:15:14.915Z,15667.20
2022-07-31T09:16:21.590Z,17233.92
2022-07-31T09:17:13.408Z,17233.92
2022-07-31T09:18:14.361Z,17233.92
2022-07-31T09:19:53.147Z,17233.92
2022-07-31T09:20:13.475Z,15667.20
2022-07-31T09:21:13.509Z,17233.92
2022-07-31T09:22:13.369Z,17233.92
2022-07-31T09:23:13.179Z,17233.92
2022-07-31T09:24:13.208Z,17233.92
2022-07-31T09:25:13.181Z,17233.92
2022-07-31T09:26:18.104Z,17233.92
2022-07-31T09:27:13.241Z,18800.64
2022-07-31T09:28:13.265Z,18800.64
2022-07-31T09:29:13.329Z,18800.64
2022-07-31T09:30:14.408Z,18800.64
2022-07-31T09:31:13.661Z,18800.64
2022-07-31T09:32:13.696Z,18800.64
2022-07-31T09:33:13.803Z,17233.92
2022-07-31T09:34:13.524Z,15667.20
2022-07-31T09:35:13.326Z,17233.92
2022-07-31T09:36:13.332Z,15667.20
2022-07-31T09:37:13.244Z,15667.20
2022-07-31T09:38:13.163Z,17233.92
2022-07-31T09:39:13.067Z,17233.92
2022-07-31T09:40:12.968Z,17233.92
2022-07-31T09:41:52.351Z,17233.92
2022-07-31T09:42:16.869Z,17233.92
2022-07-31T09:43:14.511Z,17233.92
2022-07-31T09:44:13.495Z,18800.64
2022-07-31T09:45:13.467Z,20367.36
2022-07-31T09:46:14.743Z,18800.64
2022-07-31T09:47:13.793Z,20367.36
2022-07-31T09:48:26.292Z,20367.36
2022-07-31T09:49:13.067Z,20367.36
2022-07-31T09:50:13.152Z,20367.36
2022-07-31T09:51:14.367Z,20367.36
2022-07-31T09:52:13.360Z,18800.64
2022-07-31T09:53:13.359Z,18800.64
2022-07-31T09:54:13.408Z,17233.92
2022-07-31T09:55:15.432Z,18800.64
2022-07-31T09:56:13.589Z,17233.92
2022-07-31T09:57:13.761Z,17233.92
2022-07-31T09:58:14.210Z,17233.92
2022-07-31T09:59:14.665Z,17233.92
2022-07-31T10:00:17.293Z,17233.92
2022-07-31T10:01:13.585Z,17233.92
2022-07-31T10:02:13.586Z,17233.92
2022-07-31T10:03:13.689Z,18800.64
2022-07-31T10:04:13.491Z,18800.64
2022-07-31T10:05:13.512Z,18800.64
2022-07-31T10:06:16.641Z,20367.36
2022-07-31T10:07:31.750Z,20367.36
2022-07-31T10:08:13.520Z,21934.08
2022-07-31T10:09:15.042Z,23500.80
2022-07-31T10:10:13.070Z,23500.80
2022-07-31T10:11:16.643Z,25067.52
2022-07-31T10:12:16.376Z,23500.80
2022-07-31T10:13:15.328Z,21934.08
2022-07-31T10:14:13.237Z,21934.08
2022-07-31T10:15:13.137Z,21934.08
2022-07-31T10:16:13.060Z,20367.36
2022-07-31T10:17:13.021Z,20367.36
2022-07-31T10:18:15.710Z,20367.36
2022-07-31T10:19:13.740Z,20367.36
2022-07-31T10:20:15.358Z,20367.36
2022-07-31T10:21:13.387Z,20367.36
2022-07-31T10:22:14.237Z,21934.08
2022-07-31T10:23:18.475Z,21934.08
2022-07-31T10:24:14.944Z,23500.80
2022-07-31T10:25:13.058Z,23500.80
2022-07-31T10:26:14.595Z,23500.80
2022-07-31T10:27:13.968Z,23500.80
2022-07-31T10:28:14.668Z,23500.80
2022-07-31T10:29:14.091Z,23500.80
2022-07-31T10:30:12.930Z,23500.80
2022-07-31T10:31:12.791Z,23500.80
2022-07-31T10:32:13.736Z,21934.08
2022-07-31T10:33:41.930Z,23500.80
2022-07-31T10:34:13.599Z,23500.80
2022-07-31T10:35:13.485Z,23500.80
2022-07-31T10:36:15.025Z,23500.80
2022-07-31T10:37:17.811Z,21934.08
2022-07-31T10:38:15.212Z,21934.08
2022-07-31T10:39:13.246Z,21934.08
2022-07-31T10:40:13.310Z,21934.08
2022-07-31T10:41:13.283Z,21934.08
2022-07-31T10:42:13.651Z,21934.08
2022-07-31T10:43:13.629Z,21934.08
2022-07-31T10:44:15.749Z,21934.08
2022-07-31T10:45:13.780Z,23500.80
2022-07-31T10:46:14.821Z,23500.80
2022-07-31T10:47:15.582Z,25067.52
2022-07-31T10:48:13.617Z,25067.52
2022-07-31T10:49:13.616Z,25067.52
2022-07-31T10:50:13.685Z,25067.52
2022-07-31T10:51:14.201Z,25067.52
2022-07-31T10:52:13.572Z,28200.96
2022-07-31T10:53:15.080Z,31334.40
2022-07-31T10:54:13.205Z,31334.40
2022-07-31T10:55:13.651Z,31334.40
2022-07-31T10:56:13.444Z,31334.40
2022-07-31T10:57:13.684Z,28200.96
2022-07-31T10:58:15.659Z,28200.96
2022-07-31T10:59:15.271Z,28200.96
2022-07-31T11:00:13.355Z,28200.96
2022-07-31T11:01:17.441Z,28200.96
2022-07-31T11:02:15.376Z,25067.52
2022-07-31T11:03:15.411Z,25067.52
2022-07-31T11:04:13.467Z,25067.52
2022-07-31T11:05:14.716Z,25067.52
2022-07-31T11:06:16.159Z,23500.80
2022-07-31T11:07:16.986Z,21934.08
2022-07-31T11:08:14.808Z,21934.08
2022-07-31T11:09:16.729Z,21934.08
2022-07-31T11:10:20.253Z,20367.36
2022-07-31T11:11:13.946Z,21934.08
2022-07-31T11:12:13.000Z,20367.36
2022-07-31T11:13:13.613Z,20367.36
2022-07-31T11:14:14.712Z,20367.36
2022-07-31T11:15:13.846Z,20367.36
2022-07-31T11:16:16.448Z,20367.36
2022-07-31T11:17:15.040Z,18800.64
2022-07-31T11:18:24.963Z,20367.36
2022-07-31T11:19:19.004Z,18800.64
2022-07-31T11:20:15.961Z,20367.36
2022-07-31T11:22:31.513Z,21934.08
2022-07-31T11:23:15.872Z,25067.52
2022-07-31T11:24:14.005Z,34467.84
2022-07-31T11:25:14.781Z,34467.84
2022-07-31T11:26:14.689Z,31334.40
2022-07-31T11:27:16.660Z,31334.40
2022-07-31T11:28:18.170Z,28200.96
2022-07-31T11:30:01.281Z,28200.96
2022-07-31T11:30:15.019Z,28200.96
2022-07-31T11:31:13.431Z,25067.52
2022-07-31T11:32:16.347Z,28200.96
2022-07-31T11:33:16.957Z,23500.80
2022-07-31T11:34:13.115Z,21934.08
2022-07-31T11:35:13.716Z,21934.08
2022-07-31T11:36:15.491Z,17233.92
2022-07-31T11:37:13.761Z,15667.20
2022-07-31T11:38:25.729Z,14100.48
2022-07-31T11:39:13.935Z,12533.76
2022-07-31T11:40:18.169Z,12533.76
2022-07-31T11:41:15.122Z,12533.76
2022-07-31T11:42:13.300Z,14100.48
2022-07-31T11:43:26.350Z,15667.20
2022-07-31T11:44:14.438Z,15667.20
2022-07-31T11:45:15.532Z,17233.92
2022-07-31T11:46:12.936Z,15667.20
2022-07-31T11:48:09.379Z,15667.20
2022-07-31T11:48:19.342Z,14100.48
2022-07-31T11:49:13.706Z,14100.48
2022-07-31T11:50:13.680Z,14100.48
2022-07-31T11:51:16.123Z,15667.20
2022-07-31T11:52:31.272Z,15667.20
2022-07-31T11:53:13.536Z,15667.20
2022-07-31T11:54:13.628Z,17233.92
2022-07-31T11:55:15.617Z,18800.64
2022-07-31T11:56:15.465Z,20367.36
2022-07-31T11:57:13.750Z,20367.36
2022-07-31T11:58:15.280Z,20367.36
2022-07-31T11:59:45.514Z,18800.64
2022-07-31T12:00:26.539Z,18800.64
2022-07-31T12:01:13.424Z,18800.64
2022-07-31T12:02:13.435Z,18800.64
2022-07-31T12:03:13.584Z,18800.64
2022-07-31T12:04:15.188Z,18800.64
2022-07-31T12:05:13.374Z,18800.64
2022-07-31T12:06:13.504Z,18800.64
2022-07-31T12:07:13.672Z,17233.92
2022-07-31T12:08:13.615Z,17233.92
2022-07-31T12:10:02.368Z,17233.92
2022-07-31T12:10:14.898Z,18800.64
2022-07-31T12:11:14.488Z,18800.64
2022-07-31T12:12:13.435Z,18800.64
2022-07-31T12:13:15.936Z,17233.92
2022-07-31T12:14:15.231Z,17233.92
2022-07-31T12:15:13.161Z,17233.92
2022-07-31T12:16:13.096Z,17233.92
2022-07-31T12:17:14.636Z,17233.92
2022-07-31T12:18:13.239Z,15667.20